createdAt,value
2015-09-12T00:00:07.487Z,88.21
2015-09-12T00:00:19.909Z,88.21
2015-09-12T00:00:32.362Z,88.21
2015-09-12T00:00:44.784Z,88.4
2015-09-12T00:00:57.176Z,88.4
2015-09-12T00:01:09.582Z,88.02
2015-09-12T00:01:21.972Z,87.84
2015-09-12T00:01:34.363Z,87.84
2015-09-12T00:01:46.769Z,88.02
2015-09-12T00:01:59.178Z,87.74
2015-09-12T00:02:11.568Z,88.12
2015-09-12T00:02:23.974Z,87.74
2015-09-12T00:02:36.365Z,87.74
2015-09-12T00:02:48.787Z,88.4
2015-09-12T00:03:01.196Z,88.31
2015-09-12T00:03:13.618Z,88.21
2015-09-12T00:03:26.024Z,88.21
2015-09-12T00:03:38.462Z,88.12
2015-09-12T00:03:50.884Z,88.21
2015-09-12T00:04:03.307Z,88.21
2015-09-12T00:04:15.744Z,88.31
2015-09-12T00:04:28.182Z,88.4
2015-09-12T00:04:40.603Z,88.12
2015-09-12T00:04:53.041Z,88.02
2015-09-12T00:05:05.466Z,87.55
2015-09-12T00:05:17.888Z,88.12
2015-09-12T00:05:30.294Z,87.55
2015-09-12T00:05:41.981Z,87.55
2015-09-12T00:05:54.388Z,88.12
2015-09-12T00:06:06.795Z,88.21
2015-09-12T00:06:19.029Z,87.65
2015-09-12T00:06:31.451Z,87.74
2015-09-12T00:06:43.842Z,87.74
2015-09-12T00:06:56.248Z,88.12
2015-09-12T00:07:08.704Z,88.02
2015-09-12T00:07:20.376Z,87.55
2015-09-12T00:07:32.798Z,88.12
2015-09-12T00:07:45.204Z,87.65
2015-09-12T00:07:57.595Z,87.55
2015-09-12T00:08:10.002Z,87.93
2015-09-12T00:08:22.393Z,87.65
2015-09-12T00:08:34.815Z,87.65
2015-09-12T00:08:47.221Z,87.84
2015-09-12T00:08:59.627Z,87.74
2015-09-12T00:09:12.036Z,87.93
2015-09-12T00:09:24.458Z,87.93
2015-09-12T00:09:36.896Z,87.74
2015-09-12T00:09:49.318Z,88.02
2015-09-12T00:10:01.755Z,87.74
2015-09-12T00:10:14.147Z,87.84
2015-09-12T00:10:26.522Z,87.84
2015-09-12T00:10:38.912Z,87.93
2015-09-12T00:10:51.287Z,87.74
2015-09-12T00:11:03.678Z,87.65
2015-09-12T00:11:16.086Z,87.84
2015-09-12T00:11:28.477Z,87.74
2015-09-12T00:11:40.883Z,87.93
2015-09-12T00:11:53.274Z,87.74
2015-09-12T00:12:05.680Z,87.74
2015-09-12T00:12:18.104Z,87.74
2015-09-12T00:12:30.510Z,87.46
2015-09-12T00:12:42.916Z,87.74
2015-09-12T00:12:55.338Z,87.74
2015-09-12T00:13:07.760Z,87.93
2015-09-12T00:13:20.201Z,87.93
2015-09-12T00:13:32.622Z,87.84
2015-09-12T00:13:45.060Z,87.55
2015-09-12T00:13:57.513Z,87.65
2015-09-12T00:14:09.935Z,87.65
2015-09-12T00:14:22.389Z,87.65
2015-09-12T00:14:34.827Z,87.93
2015-09-12T00:14:47.264Z,88.02
2015-09-12T00:14:59.655Z,87.36
2015-09-12T00:15:12.061Z,87.08
2015-09-12T00:15:24.454Z,87.46
2015-09-12T00:15:36.860Z,86.89
2015-09-12T00:15:49.250Z,86.79
2015-09-12T00:16:01.657Z,86.89
2015-09-12T00:16:14.047Z,87.46
2015-09-12T00:16:26.456Z,87.36
2015-09-12T00:16:38.846Z,87.17
2015-09-12T00:16:51.237Z,87.08
2015-09-12T00:17:03.643Z,87.27
2015-09-12T00:17:16.049Z,87.17
2015-09-12T00:17:28.442Z,87.17
2015-09-12T00:17:40.833Z,87.08
2015-09-12T00:17:53.239Z,86.79
2015-09-12T00:18:05.645Z,86.89
2015-09-12T00:18:18.051Z,86.89
2015-09-12T00:18:30.475Z,86.98
2015-09-12T00:18:42.881Z,86.7
2015-09-12T00:18:55.303Z,86.98
2015-09-12T00:19:07.741Z,87.08
2015-09-12T00:19:20.163Z,87.27
2015-09-12T00:19:32.602Z,87.17
2015-09-12T00:19:45.040Z,87.17
2015-09-12T00:19:57.446Z,87.17
2015-09-12T00:20:09.837Z,87.27
2015-09-12T00:20:22.243Z,87.08
2015-09-12T00:20:34.635Z,87.36
2015-09-12T00:20:46.323Z,87.46
2015-09-12T00:20:58.729Z,87.36
2015-09-12T00:21:10.417Z,87.27
2015-09-12T00:21:22.823Z,87.27
2015-09-12T00:21:35.216Z,87.17
2015-09-12T00:21:47.637Z,87.17
2015-09-12T00:22:00.028Z,87.17
2015-09-12T00:22:12.419Z,86.98
2015-09-12T00:22:24.825Z,86.6
2015-09-12T00:22:37.233Z,86.98
2015-09-12T00:22:49.639Z,86.79
2015-09-12T00:23:02.061Z,86.79
2015-09-12T00:23:14.452Z,86.79
2015-09-12T00:23:26.874Z,86.79
2015-09-12T00:23:39.282Z,86.98
2015-09-12T00:23:51.688Z,87.08
2015-09-12T00:24:04.126Z,86.7
2015-09-12T00:24:16.579Z,86.51
2015-09-12T00:24:29.001Z,86.6
2015-09-12T00:24:41.425Z,86.22
2015-09-12T00:24:53.862Z,86.51
2015-09-12T00:25:06.128Z,86.32
2015-09-12T00:25:18.550Z,86.6
2015-09-12T00:25:30.956Z,86.22
2015-09-12T00:25:43.349Z,86.22
2015-09-12T00:25:55.755Z,86.22
2015-09-12T00:26:07.458Z,86.41
2015-09-12T00:26:19.849Z,86.22
2015-09-12T00:26:32.255Z,86.32
2015-09-12T00:26:44.647Z,86.22
2015-09-12T00:26:57.054Z,86.32
2015-09-12T00:27:09.460Z,86.32
2015-09-12T00:27:21.147Z,86.36
2015-09-12T00:27:33.569Z,86.36
2015-09-12T00:27:45.978Z,86.32
2015-09-12T00:27:58.384Z,86.36
2015-09-12T00:28:10.774Z,86.27
2015-09-12T00:28:23.165Z,86.55
2015-09-12T00:28:35.587Z,86.41
2015-09-12T00:28:47.995Z,86.51
2015-09-12T00:29:00.401Z,86.41
2015-09-12T00:29:12.823Z,86.41
2015-09-12T00:29:25.089Z,86.6
2015-09-12T00:29:37.511Z,86.41
2015-09-12T00:29:49.935Z,86.41
2015-09-12T00:30:02.357Z,86.27
2015-09-12T00:30:14.794Z,86.46
2015-09-12T00:30:27.216Z,86.41
2015-09-12T00:30:38.950Z,86.46
2015-09-12T00:30:51.389Z,86.41
2015-09-12T00:31:03.811Z,86.18
2015-09-12T00:31:16.248Z,86.18
2015-09-12T00:31:28.654Z,86.41
2015-09-12T00:31:41.045Z,86.32
2015-09-12T00:31:53.454Z,86.65
2015-09-12T00:32:05.861Z,86.32
2015-09-12T00:32:18.267Z,86.13
2015-09-12T00:32:30.673Z,86.32
2015-09-12T00:32:43.079Z,86.32
2015-09-12T00:32:55.472Z,86.32
2015-09-12T00:33:07.878Z,86.22
2015-09-12T00:33:20.269Z,86.36
2015-09-12T00:33:32.675Z,86.27
2015-09-12T00:33:45.081Z,86.27
2015-09-12T00:33:57.474Z,86.41
2015-09-12T00:34:09.880Z,86.6
2015-09-12T00:34:22.271Z,86.55
2015-09-12T00:34:34.708Z,86.13
2015-09-12T00:34:47.115Z,86.27
2015-09-12T00:34:59.523Z,86.36
2015-09-12T00:35:11.929Z,86.32
2015-09-12T00:35:24.351Z,86.32
2015-09-12T00:35:36.773Z,86.36
2015-09-12T00:35:49.210Z,86.36
2015-09-12T00:36:01.633Z,86.46
2015-09-12T00:36:14.055Z,86.27
2015-09-12T00:36:26.493Z,86.27
2015-09-12T00:36:38.930Z,86.36
2015-09-12T00:36:51.352Z,86.55
2015-09-12T00:37:03.792Z,86.36
2015-09-12T00:37:16.199Z,86.36
2015-09-12T00:37:28.605Z,86.32
2015-09-12T00:37:40.996Z,86.41
2015-09-12T00:37:53.402Z,86.46
2015-09-12T00:38:05.810Z,86.46
2015-09-12T00:38:18.216Z,86.65
2015-09-12T00:38:29.904Z,86.65
2015-09-12T00:38:42.310Z,86.51
2015-09-12T00:38:54.701Z,86.41
2015-09-12T00:39:07.234Z,86.51
2015-09-12T00:39:19.640Z,86.46
2015-09-12T00:39:32.062Z,86.22
2015-09-12T00:39:44.484Z,86.36
2015-09-12T00:39:56.890Z,86.13
2015-09-12T00:40:09.313Z,86.41
2015-09-12T00:40:21.704Z,86.46
2015-09-12T00:40:34.110Z,86.36
2015-09-12T00:40:46.516Z,86.27
2015-09-12T00:40:58.907Z,86.22
2015-09-12T00:41:11.316Z,86.65
2015-09-12T00:41:23.738Z,86.36
2015-09-12T00:41:36.144Z,86.36
2015-09-12T00:41:48.566Z,86.46
2015-09-12T00:42:00.972Z,86.46
2015-09-12T00:42:13.380Z,86.22
2015-09-12T00:42:25.817Z,86.55
2015-09-12T00:42:37.536Z,86.7
2015-09-12T00:42:49.958Z,86.83
2015-09-12T00:43:02.380Z,86.83
2015-09-12T00:43:14.819Z,86.55
2015-09-12T00:43:27.257Z,86.55
2015-09-12T00:43:39.678Z,86.27
2015-09-12T00:43:52.116Z,86.36
2015-09-12T00:44:04.538Z,86.93
2015-09-12T00:44:16.947Z,86.46
2015-09-12T00:44:29.338Z,86.6
2015-09-12T00:44:41.744Z,86.65
2015-09-12T00:44:54.150Z,86.51
2015-09-12T00:45:06.556Z,86.7
2015-09-12T00:45:18.949Z,86.83
2015-09-12T00:45:31.340Z,86.55
2015-09-12T00:45:43.746Z,86.89
2015-09-12T00:45:56.137Z,87.12
2015-09-12T00:46:08.543Z,87.02
2015-09-12T00:46:20.967Z,87.02
2015-09-12T00:46:33.373Z,86.83
2015-09-12T00:46:45.779Z,86.74
2015-09-12T00:46:58.201Z,87.46
2015-09-12T00:47:10.623Z,87.21
2015-09-12T00:47:23.062Z,87.31
2015-09-12T00:47:35.484Z,87.27
2015-09-12T00:47:47.922Z,87.31
2015-09-12T00:48:00.344Z,87.12
2015-09-12T00:48:12.781Z,87.12
2015-09-12T00:48:24.502Z,87.08
2015-09-12T00:48:36.924Z,87.36
2015-09-12T00:48:49.377Z,87.4
2015-09-12T00:49:01.768Z,87.4
2015-09-12T00:49:14.143Z,87.4
2015-09-12T00:49:26.534Z,87.5
2015-09-12T00:49:38.909Z,87.4
2015-09-12T00:49:51.300Z,87.27
2015-09-12T00:50:03.675Z,87.21
2015-09-12T00:50:16.081Z,87.08
2015-09-12T00:50:28.495Z,87.27
2015-09-12T00:50:40.886Z,87.4
2015-09-12T00:50:53.292Z,87.27
2015-09-12T00:51:05.714Z,87.31
2015-09-12T00:51:18.105Z,87.21
2015-09-12T00:51:30.497Z,87.27
2015-09-12T00:51:42.903Z,87.21
2015-09-12T00:51:55.310Z,87.4
2015-09-12T00:52:07.716Z,87.36
2015-09-12T00:52:20.138Z,87.4
2015-09-12T00:52:32.562Z,87.02
2015-09-12T00:52:44.968Z,87.08
2015-09-12T00:52:57.390Z,87.27
2015-09-12T00:53:09.827Z,86.83
2015-09-12T00:53:22.249Z,87.17
2015-09-12T00:53:34.672Z,87.31
2015-09-12T00:53:47.094Z,87.21
2015-09-12T00:53:59.516Z,87.17
2015-09-12T00:54:11.953Z,87.21
2015-09-12T00:54:24.375Z,87.31
2015-09-12T00:54:36.847Z,87.27
2015-09-12T00:54:49.238Z,87.08
2015-09-12T00:55:01.644Z,87.02
2015-09-12T00:55:14.050Z,86.7
2015-09-12T00:55:26.456Z,86.79
2015-09-12T00:55:38.864Z,87.02
2015-09-12T00:55:51.254Z,87.02
2015-09-12T00:56:03.660Z,87.12
2015-09-12T00:56:16.067Z,86.93
2015-09-12T00:56:28.457Z,86.79
2015-09-12T00:56:40.867Z,86.98
2015-09-12T00:56:53.273Z,86.65
2015-09-12T00:57:05.679Z,86.65
2015-09-12T00:57:18.070Z,86.46
2015-09-12T00:57:30.476Z,86.27
2015-09-12T00:57:42.869Z,86.27
2015-09-12T00:57:55.290Z,86.13
2015-09-12T00:58:07.697Z,86.27
2015-09-12T00:58:20.103Z,86.22
2015-09-12T00:58:32.525Z,86.27
2015-09-12T00:58:44.948Z,86.55
2015-09-12T00:58:57.370Z,86.55
2015-09-12T00:59:09.791Z,86.36
2015-09-12T00:59:22.213Z,86.93
2015-09-12T00:59:34.651Z,86.65
2015-09-12T00:59:47.106Z,86.41
2015-09-12T00:59:59.543Z,86.46
2015-09-12T01:00:11.809Z,86.27
2015-09-12T01:00:24.231Z,86.46
2015-09-12T01:00:36.668Z,86.41
2015-09-12T01:00:49.077Z,86.32
2015-09-12T01:01:01.467Z,86.27
2015-09-12T01:01:13.874Z,86.32
2015-09-12T01:01:26.264Z,86.27
2015-09-12T01:01:38.670Z,86.27
2015-09-12T01:01:51.080Z,86.65
2015-09-12T01:02:03.470Z,86.46
2015-09-12T01:02:15.877Z,86.46
2015-09-12T01:02:28.267Z,86.22
2015-09-12T01:02:40.689Z,86.27
2015-09-12T01:02:53.082Z,86.13
2015-09-12T01:03:05.488Z,86.7
2015-09-12T01:03:17.879Z,86.65
2015-09-12T01:03:30.285Z,86.55
2015-09-12T01:03:42.691Z,86.41
2015-09-12T01:03:55.084Z,85.99
2015-09-12T01:04:07.506Z,85.89
2015-09-12T01:04:19.912Z,85.57
2015-09-12T01:04:32.334Z,85.99
2015-09-12T01:04:44.756Z,85.89
2015-09-12T01:04:57.163Z,85.85
2015-09-12T01:05:09.600Z,85.7
2015-09-12T01:05:22.022Z,85.7
2015-09-12T01:05:34.460Z,85.7
2015-09-12T01:05:46.897Z,85.89
2015-09-12T01:05:59.337Z,86.55
2015-09-12T01:06:11.790Z,86.65
2015-09-12T01:06:24.180Z,85.8
2015-09-12T01:06:36.587Z,85.61
2015-09-12T01:06:48.274Z,86.46
2015-09-12T01:07:00.682Z,85.7
2015-09-12T01:07:13.073Z,85.89
2015-09-12T01:07:25.495Z,86.55
2015-09-12T01:07:37.901Z,86.55
2015-09-12T01:07:50.292Z,85.89
2015-09-12T01:08:02.700Z,85.75
2015-09-12T01:08:15.091Z,86.46
2015-09-12T01:08:27.497Z,85.94
2015-09-12T01:08:39.888Z,85.61
2015-09-12T01:08:52.294Z,86.41
2015-09-12T01:09:04.686Z,86.51
2015-09-12T01:09:17.077Z,86.51
2015-09-12T01:09:29.499Z,86.74
2015-09-12T01:09:41.921Z,86.51
2015-09-12T01:09:54.343Z,86.22
2015-09-12T01:10:06.751Z,86.13
2015-09-12T01:10:19.157Z,86.55
2015-09-12T01:10:31.595Z,86.32
2015-09-12T01:10:44.017Z,86.46
2015-09-12T01:10:56.438Z,86.32
2015-09-12T01:11:08.862Z,86.32
2015-09-12T01:11:21.300Z,86.36
2015-09-12T01:11:33.753Z,86.55
2015-09-12T01:11:46.175Z,86.46
2015-09-12T01:11:58.581Z,86.46
2015-09-12T01:12:10.974Z,86.32
2015-09-12T01:12:23.364Z,86.46
2015-09-12T01:12:35.771Z,86.41
2015-09-12T01:12:48.161Z,86.55
2015-09-12T01:13:00.567Z,86.36
2015-09-12T01:13:12.960Z,86.6
2015-09-12T01:13:25.366Z,86.41
2015-09-12T01:13:37.632Z,86.13
2015-09-12T01:13:50.023Z,86.32
2015-09-12T01:14:02.444Z,86.46
2015-09-12T01:14:14.837Z,86.32
2015-09-12T01:14:27.228Z,86.36
2015-09-12T01:14:39.634Z,86.32
2015-09-12T01:14:52.025Z,86.32
2015-09-12T01:15:04.446Z,86.46
2015-09-12T01:15:16.855Z,86.22
2015-09-12T01:15:29.277Z,86.22
2015-09-12T01:15:41.683Z,86.32
2015-09-12T01:15:54.120Z,86.41
2015-09-12T01:16:06.558Z,86.36
2015-09-12T01:16:18.982Z,86.32
2015-09-12T01:16:31.419Z,86.13
2015-09-12T01:16:43.841Z,86.27
2015-09-12T01:16:56.279Z,86.36
2015-09-12T01:17:07.966Z,86.08
2015-09-12T01:17:20.359Z,86.18
2015-09-12T01:17:32.765Z,86.55
2015-09-12T01:17:45.156Z,86.65
2015-09-12T01:17:57.562Z,86.18
2015-09-12T01:18:09.952Z,86.36
2015-09-12T01:18:22.361Z,86.55
2015-09-12T01:18:34.751Z,86.65
2015-09-12T01:18:47.158Z,86.55
2015-09-12T01:18:59.564Z,86.18
2015-09-12T01:19:11.970Z,86.46
2015-09-12T01:19:24.363Z,86.36
2015-09-12T01:19:36.769Z,86.65
2015-09-12T01:19:49.175Z,86.22
2015-09-12T01:20:01.581Z,86.41
2015-09-12T01:20:13.988Z,86.41
2015-09-12T01:20:26.412Z,86.41
2015-09-12T01:20:38.818Z,86.46
2015-09-12T01:20:51.224Z,86.41
2015-09-12T01:21:03.646Z,86.32
2015-09-12T01:21:16.052Z,86.22
2015-09-12T01:21:28.492Z,86.41
2015-09-12T01:21:40.929Z,86.41
2015-09-12T01:21:53.320Z,86.41
2015-09-12T01:22:05.710Z,86.22
2015-09-12T01:22:18.117Z,86.32
2015-09-12T01:22:30.509Z,86.22
2015-09-12T01:22:42.916Z,86.6
2015-09-12T01:22:55.306Z,86.22
2015-09-12T01:23:07.712Z,86.32
2015-09-12T01:23:20.119Z,86.13
2015-09-12T01:23:32.511Z,86.32
2015-09-12T01:23:44.918Z,86.51
2015-09-12T01:23:57.339Z,86.32
2015-09-12T01:24:09.746Z,86.32
2015-09-12T01:24:22.152Z,86.32
2015-09-12T01:24:34.576Z,86.41
2015-09-12T01:24:46.982Z,86.41
2015-09-12T01:24:59.420Z,86.6
2015-09-12T01:25:11.841Z,86.22
2015-09-12T01:25:24.279Z,86.41
2015-09-12T01:25:36.703Z,86.7
2015-09-12T01:25:49.125Z,86.41
2015-09-12T01:26:01.578Z,86.41
2015-09-12T01:26:14.031Z,86.6
2015-09-12T01:26:26.453Z,86.51
2015-09-12T01:26:38.892Z,86.51
2015-09-12T01:26:51.283Z,86.27
2015-09-12T01:27:03.674Z,86.32
2015-09-12T01:27:16.080Z,86.55
2015-09-12T01:27:28.470Z,86.27
2015-09-12T01:27:40.863Z,86.18
2015-09-12T01:27:53.254Z,86.08
2015-09-12T01:28:05.629Z,86.55
2015-09-12T01:28:18.019Z,86.18
2015-09-12T01:28:30.410Z,86.55
2015-09-12T01:28:42.834Z,86.36
2015-09-12T01:28:55.224Z,86.46
2015-09-12T01:29:07.631Z,86.32
2015-09-12T01:29:20.021Z,86.32
2015-09-12T01:29:32.607Z,86.18
2015-09-12T01:29:45.031Z,86.22
2015-09-12T01:29:57.828Z,86.27
2015-09-12T01:30:10.125Z,86.27
2015-09-12T01:30:22.219Z,86.65
2015-09-12T01:30:34.578Z,86.41
2015-09-12T01:30:46.924Z,86.27
2015-09-12T01:31:01.252Z,86.27
2015-09-12T01:31:14.189Z,86.18
2015-09-12T01:31:26.971Z,86.32
2015-09-12T01:31:39.706Z,86.18
2015-09-12T01:31:52.378Z,86.36
2015-09-12T01:32:05.143Z,86.55
2015-09-12T01:32:23.393Z,85.94
2015-09-12T01:32:36.003Z,86.27
2015-09-12T01:32:49.883Z,85.99
2015-09-12T01:33:04.633Z,85.89
2015-09-12T01:33:17.273Z,85.89
2015-09-12T01:33:29.805Z,86.46
2015-09-12T01:33:42.398Z,85.57
2015-09-12T01:33:54.854Z,85.8
2015-09-12T01:34:07.479Z,86.08
2015-09-12T01:34:20.213Z,86.08
2015-09-12T01:34:32.838Z,86.27
2015-09-12T01:34:46.512Z,86.08
2015-09-12T01:34:59.231Z,85.8
2015-09-12T01:35:12.027Z,86.08
2015-09-12T01:35:24.637Z,85.38
2015-09-12T01:35:37.262Z,85.42
2015-09-12T01:35:50.076Z,85.94
2015-09-12T01:36:02.529Z,86.27
2015-09-12T01:36:14.983Z,86.36
2015-09-12T01:36:27.420Z,86.27
2015-09-12T01:36:39.889Z,86.27
2015-09-12T01:36:52.500Z,86.04
2015-09-12T01:37:04.938Z,85.47
2015-09-12T01:37:17.453Z,85.23
2015-09-12T01:37:29.145Z,85.51
2015-09-12T01:37:41.535Z,85.42
2015-09-12T01:37:53.958Z,85.13
2015-09-12T01:38:06.349Z,85.23
2015-09-12T01:38:18.755Z,85.23
2015-09-12T01:38:31.161Z,85.23
2015-09-12T01:38:43.568Z,85.04
2015-09-12T01:38:55.977Z,85.42
2015-09-12T01:39:08.367Z,84.94
2015-09-12T01:39:20.774Z,85.13
2015-09-12T01:39:33.180Z,85.13
2015-09-12T01:39:45.571Z,85.61
2015-09-12T01:39:57.979Z,85.42
2015-09-12T01:40:10.369Z,85.42
2015-09-12T01:40:22.776Z,85.13
2015-09-12T01:40:35.213Z,85.04
2015-09-12T01:40:47.619Z,84.94
2015-09-12T01:41:00.028Z,84.85
2015-09-12T01:41:12.434Z,85.13
2015-09-12T01:41:24.856Z,85.04
2015-09-12T01:41:37.293Z,84.85
2015-09-12T01:41:49.590Z,85.04
2015-09-12T01:42:02.042Z,84.94
2015-09-12T01:42:14.449Z,85.04
2015-09-12T01:42:26.839Z,84.94
2015-09-12T01:42:39.230Z,85.04
2015-09-12T01:42:51.667Z,84.94
2015-09-12T01:43:04.076Z,85.61
2015-09-12T01:43:16.482Z,84.85
2015-09-12T01:43:28.748Z,85.42
2015-09-12T01:43:41.154Z,84.66
2015-09-12T01:43:53.560Z,84.75
2015-09-12T01:44:05.265Z,85.42
2015-09-12T01:44:17.718Z,85.42
2015-09-12T01:44:30.140Z,85.42
2015-09-12T01:44:42.546Z,85.23
2015-09-12T01:44:54.968Z,85.13
2015-09-12T01:45:07.393Z,85.13
2015-09-12T01:45:19.674Z,85.32
2015-09-12T01:45:32.159Z,85.32
2015-09-12T01:45:44.596Z,85.61
2015-09-12T01:45:57.034Z,85.51
2015-09-12T01:46:09.489Z,85.51
2015-09-12T01:46:21.911Z,85.51
2015-09-12T01:46:34.364Z,85.32
2015-09-12T01:46:46.770Z,85.51
2015-09-12T01:46:59.161Z,85.51
2015-09-12T01:47:11.552Z,85.32
2015-09-12T01:47:23.959Z,85.13
2015-09-12T01:47:36.365Z,85.51
2015-09-12T01:47:48.771Z,85.32
2015-09-12T01:48:01.177Z,85.32
2015-09-12T01:48:13.570Z,85.04
2015-09-12T01:48:25.976Z,84.52
2015-09-12T01:48:38.383Z,84.85
2015-09-12T01:48:50.789Z,84.94
2015-09-12T01:49:03.492Z,85.13
2015-09-12T01:49:16.120Z,84.85
2015-09-12T01:49:28.511Z,84.94
2015-09-12T01:49:40.917Z,85.04
2015-09-12T01:49:53.323Z,84.94
2015-09-12T01:50:05.745Z,85.51
2015-09-12T01:50:18.152Z,85.61
2015-09-12T01:50:30.574Z,85.47
2015-09-12T01:50:43.027Z,85.32
2015-09-12T01:50:55.246Z,85.51
2015-09-12T01:51:07.668Z,85.51
2015-09-12T01:51:20.124Z,84.85
2015-09-12T01:51:32.436Z,85.42
2015-09-12T01:51:44.765Z,84.66
2015-09-12T01:51:57.280Z,85.13
2015-09-12T01:52:09.561Z,85.42
2015-09-12T01:52:21.906Z,84.75
2015-09-12T01:52:34.406Z,85.32
2015-09-12T01:52:47.685Z,85.51
2015-09-12T01:53:00.092Z,85.51
2015-09-12T01:53:12.498Z,85.42
2015-09-12T01:53:24.907Z,85.32
2015-09-12T01:53:37.298Z,85.42
2015-09-12T01:53:49.704Z,85
2015-09-12T01:54:02.095Z,85.42
2015-09-12T01:54:14.501Z,85.42
2015-09-12T01:54:26.894Z,85.23
2015-09-12T01:54:39.300Z,85.57
2015-09-12T01:54:51.711Z,85.13
2015-09-12T01:55:04.102Z,85.32
2015-09-12T01:55:16.492Z,85.38
2015-09-12T01:55:28.899Z,85.13
2015-09-12T01:55:41.306Z,85.23
2015-09-12T01:55:53.728Z,85.32
2015-09-12T01:56:06.134Z,85.32
2015-09-12T01:56:17.837Z,84.85
2015-09-12T01:56:30.246Z,84.9
2015-09-12T01:56:42.684Z,85.23
2015-09-12T01:56:55.121Z,85.42
2015-09-12T01:57:07.543Z,85.09
2015-09-12T01:57:19.981Z,85.19
2015-09-12T01:57:32.372Z,85.19
2015-09-12T01:57:44.778Z,85.28
2015-09-12T01:57:57.185Z,85.38
2015-09-12T01:58:09.591Z,84.81
2015-09-12T01:58:21.997Z,85.23
2015-09-12T01:58:34.421Z,85.04
2015-09-12T01:58:46.827Z,85.32
2015-09-12T01:58:59.234Z,85
2015-09-12T01:59:11.624Z,85.32
2015-09-12T01:59:24.046Z,85.61
2015-09-12T01:59:36.470Z,85.7
2015-09-12T01:59:48.876Z,85.51
2015-09-12T02:00:01.298Z,85.38
2015-09-12T02:00:13.704Z,85.04
2015-09-12T02:00:26.142Z,84.85
2015-09-12T02:00:38.581Z,84.81
2015-09-12T02:00:51.019Z,85.09
2015-09-12T02:01:03.456Z,84.81
2015-09-12T02:01:15.894Z,84.85
2015-09-12T02:01:28.347Z,84.81
2015-09-12T02:01:40.786Z,84.81
2015-09-12T02:01:53.240Z,84.9
2015-09-12T02:02:05.646Z,84.9
2015-09-12T02:02:18.036Z,85.42
2015-09-12T02:02:30.443Z,85.32
2015-09-12T02:02:42.851Z,85.51
2015-09-12T02:02:55.242Z,85.61
2015-09-12T02:03:07.648Z,85.23
2015-09-12T02:03:20.054Z,85.23
2015-09-12T02:03:32.445Z,85.09
2015-09-12T02:03:44.838Z,85.51
2015-09-12T02:03:57.245Z,85.61
2015-09-12T02:04:09.651Z,85.32
2015-09-12T02:04:22.057Z,85.42
2015-09-12T02:04:34.448Z,84.9
2015-09-12T02:04:46.839Z,85.7
2015-09-12T02:04:59.246Z,85.51
2015-09-12T02:05:11.667Z,85.13
2015-09-12T02:05:24.089Z,85
2015-09-12T02:05:36.496Z,84.81
2015-09-12T02:05:48.904Z,85.04
2015-09-12T02:06:01.310Z,85.42
2015-09-12T02:06:13.732Z,85.28
2015-09-12T02:06:26.138Z,85.23
2015-09-12T02:06:38.576Z,85.42
2015-09-12T02:06:51.000Z,85.7
2015-09-12T02:07:03.406Z,85.51
2015-09-12T02:07:15.687Z,85.51
2015-09-12T02:07:28.125Z,85.23
2015-09-12T02:07:40.609Z,85.42
2015-09-12T02:07:53.002Z,85.32
2015-09-12T02:08:05.392Z,85.57
2015-09-12T02:08:17.783Z,85.23
2015-09-12T02:08:30.095Z,85.32
2015-09-12T02:08:42.502Z,85.23
2015-09-12T02:08:54.925Z,85.47
2015-09-12T02:09:07.332Z,85.47
2015-09-12T02:09:19.754Z,85.23
2015-09-12T02:09:32.160Z,85.51
2015-09-12T02:09:44.613Z,85.51
2015-09-12T02:09:57.052Z,85.38
2015-09-12T02:10:09.459Z,85.51
2015-09-12T02:10:21.896Z,85.32
2015-09-12T02:10:34.318Z,85.61
2015-09-12T02:10:46.771Z,85.61
2015-09-12T02:10:59.195Z,85.57
2015-09-12T02:11:10.914Z,85.51
2015-09-12T02:11:23.336Z,85.23
2015-09-12T02:11:35.742Z,85.7
2015-09-12T02:11:48.133Z,85.7
2015-09-12T02:12:00.541Z,85.47
2015-09-12T02:12:12.931Z,85.57
2015-09-12T02:12:25.338Z,85.32
2015-09-12T02:12:37.744Z,85.42
2015-09-12T02:12:50.135Z,85.42
2015-09-12T02:13:02.543Z,85.66
2015-09-12T02:13:14.933Z,85.51
2015-09-12T02:13:27.340Z,85.32
2015-09-12T02:13:39.746Z,85.38
2015-09-12T02:13:52.137Z,85.47
2015-09-12T02:14:04.545Z,85.75
2015-09-12T02:14:16.248Z,85.94
2015-09-12T02:14:28.654Z,86.36
2015-09-12T02:14:41.060Z,86.22
2015-09-12T02:14:53.467Z,86.18
2015-09-12T02:15:05.875Z,86.08
2015-09-12T02:15:18.297Z,85.89
2015-09-12T02:15:30.750Z,86.04
2015-09-12T02:15:43.172Z,85.85
2015-09-12T02:15:55.609Z,85.75
2015-09-12T02:16:08.049Z,85.89
2015-09-12T02:16:20.486Z,86.74
2015-09-12T02:16:32.939Z,86.55
2015-09-12T02:16:45.361Z,86.74
2015-09-12T02:16:57.799Z,86.55
2015-09-12T02:17:09.520Z,86.65
2015-09-12T02:17:21.926Z,85.89
2015-09-12T02:17:34.316Z,85.66
2015-09-12T02:17:46.723Z,86.51
2015-09-12T02:17:59.145Z,85.7
2015-09-12T02:18:11.553Z,85.85
2015-09-12T02:18:23.959Z,85.94
2015-09-12T02:18:36.365Z,86.18
2015-09-12T02:18:48.772Z,85.75
2015-09-12T02:19:01.178Z,86.08
2015-09-12T02:19:13.602Z,86.27
2015-09-12T02:19:25.992Z,86.18
2015-09-12T02:19:38.399Z,85.89
2015-09-12T02:19:50.789Z,86.08
2015-09-12T02:20:03.195Z,85.89
2015-09-12T02:20:15.619Z,86.08
2015-09-12T02:20:28.026Z,86.08
2015-09-12T02:20:40.432Z,85.89
2015-09-12T02:20:52.854Z,86.27
2015-09-12T02:21:05.260Z,86.18
2015-09-12T02:21:17.684Z,86.08
2015-09-12T02:21:30.121Z,86.04
2015-09-12T02:21:42.559Z,86.08
2015-09-12T02:21:54.996Z,85.89
2015-09-12T02:22:07.434Z,86.04
2015-09-12T02:22:19.873Z,85.99
2015-09-12T02:22:32.326Z,86.27
2015-09-12T02:22:44.748Z,86.32
2015-09-12T02:22:57.155Z,86.36
2015-09-12T02:23:09.545Z,86.65
2015-09-12T02:23:21.937Z,86.46
2015-09-12T02:23:34.359Z,86.36
2015-09-12T02:23:46.765Z,86.65
2015-09-12T02:23:59.156Z,86.79
2015-09-12T02:24:11.562Z,87.02
2015-09-12T02:24:23.971Z,86.98
2015-09-12T02:24:36.362Z,87.02
2015-09-12T02:24:48.768Z,86.98
2015-09-12T02:25:01.190Z,87.02
2015-09-12T02:25:13.580Z,86.93
2015-09-12T02:25:25.989Z,86.79
2015-09-12T02:25:38.379Z,86.83
2015-09-12T02:25:50.770Z,86.36
2015-09-12T02:26:03.176Z,86.27
2015-09-12T02:26:15.582Z,86.6
2015-09-12T02:26:28.006Z,86.6
2015-09-12T02:26:40.413Z,86.27
2015-09-12T02:26:52.819Z,86.18
2015-09-12T02:27:05.241Z,86.46
2015-09-12T02:27:17.678Z,86.46
2015-09-12T02:27:30.101Z,86.36
2015-09-12T02:27:42.539Z,86.41
2015-09-12T02:27:54.960Z,86.46
2015-09-12T02:28:07.398Z,86.74
2015-09-12T02:28:19.820Z,86.27
2015-09-12T02:28:32.212Z,86.36
2015-09-12T02:28:44.619Z,86.83
2015-09-12T02:28:57.009Z,86.98
2015-09-12T02:29:09.416Z,87.02
2015-09-12T02:29:21.681Z,86.83
2015-09-12T02:29:34.075Z,87.21
2015-09-12T02:29:46.512Z,87.17
2015-09-12T02:29:58.747Z,87.21
2015-09-12T02:30:11.153Z,87.12
2015-09-12T02:30:23.575Z,87.31
2015-09-12T02:30:35.967Z,87.17
2015-09-12T02:30:48.374Z,87.5
2015-09-12T02:31:00.780Z,86.79
2015-09-12T02:31:13.171Z,86.93
2015-09-12T02:31:25.592Z,86.93
2015-09-12T02:31:38.001Z,86.83
2015-09-12T02:31:50.423Z,86.74
2015-09-12T02:32:02.829Z,86.55
2015-09-12T02:32:15.235Z,86.7
2015-09-12T02:32:27.673Z,86.41
2015-09-12T02:32:40.096Z,86.32
2015-09-12T02:32:52.550Z,86.65
2015-09-12T02:33:04.971Z,86.46
2015-09-12T02:33:17.393Z,86.46
2015-09-12T02:33:29.831Z,86.41
2015-09-12T02:33:42.270Z,86.36
2015-09-12T02:33:54.739Z,86.46
2015-09-12T02:34:07.130Z,86.46
2015-09-12T02:34:19.536Z,86.46
2015-09-12T02:34:31.942Z,86.36
2015-09-12T02:34:44.335Z,86.13
2015-09-12T02:34:56.725Z,86.65
2015-09-12T02:35:09.132Z,86.51
2015-09-12T02:35:21.538Z,86.27
2015-09-12T02:35:33.929Z,86.36
2015-09-12T02:35:46.337Z,86.36
2015-09-12T02:35:58.743Z,86.55
2015-09-12T02:36:11.134Z,86.6
2015-09-12T02:36:23.540Z,86.46
2015-09-12T02:36:35.931Z,86.65
2015-09-12T02:36:48.339Z,86.83
2015-09-12T02:37:00.729Z,87.02
2015-09-12T02:37:13.151Z,87.02
2015-09-12T02:37:25.573Z,86.83
2015-09-12T02:37:37.979Z,87.02
2015-09-12T02:37:50.387Z,86.55
2015-09-12T02:38:02.793Z,86.83
2015-09-12T02:38:15.230Z,87.02
2015-09-12T02:38:27.668Z,87.02
2015-09-12T02:38:40.121Z,87.02
2015-09-12T02:38:52.530Z,87.02
2015-09-12T02:39:04.921Z,86.36
2015-09-12T02:39:17.312Z,86.27
2015-09-12T02:39:29.718Z,86.46
2015-09-12T02:39:42.108Z,86.55
2015-09-12T02:39:54.516Z,86.46
2015-09-12T02:40:06.922Z,86.46
2015-09-12T02:40:19.313Z,86.65